createdAt,value
2022-09-06T00:01:14.671Z,1.60
2022-09-06T00:03:42.389Z,1.80
2022-09-06T00:06:11.963Z,1.80
2022-09-06T00:08:39.597Z,1.80
2022-09-06T00:11:07.700Z,1.70
2022-09-06T00:13:35.667Z,1.60
2022-09-06T00:16:08.815Z,1.75
2022-09-06T00:18:36.427Z,1.55
2022-09-06T00:21:04.956Z,1.77
2022-09-06T00:23:32.294Z,1.77
2022-09-06T00:26:04.454Z,2.45
2022-09-06T00:28:32.043Z,2.33
2022-09-06T00:30:59.453Z,2.30
2022-09-06T00:33:26.999Z,2.30
2022-09-06T00:35:59.026Z,2.63
2022-09-06T00:38:26.789Z,2.65
2022-09-06T00:40:54.999Z,2.60
2022-09-06T00:43:26.495Z,2.75
2022-09-06T00:45:56.113Z,2.78
2022-09-06T00:48:45.430Z,2.85
2022-09-06T00:51:19.261Z,2.90
2022-09-06T00:53:57.417Z,2.75
2022-09-06T00:56:40.589Z,2.70
2022-09-06T00:59:18.570Z,3.30
2022-09-06T01:01:48.778Z,3.25
2022-09-06T01:04:19.386Z,3.13
2022-09-06T01:07:23.593Z,3.38
2022-09-06T01:09:57.141Z,3.22
2022-09-06T01:13:09.340Z,3.63
2022-09-06T01:16:15.217Z,3.60
2022-09-06T01:19:05.728Z,3.45
2022-09-06T01:22:29.938Z,3.55
2022-09-06T01:25:53.252Z,3.45
2022-09-06T01:28:40.825Z,3.70
2022-09-06T01:31:35.878Z,3.70
2022-09-06T01:34:34.369Z,3.63
2022-09-06T01:37:20.482Z,3.88
2022-09-06T01:40:02.134Z,3.38
2022-09-06T01:42:34.843Z,3.57
2022-09-06T01:45:10.842Z,3.47
2022-09-06T01:48:01.503Z,3.90
2022-09-06T01:51:18.143Z,3.78
2022-09-06T01:54:25.447Z,3.42
2022-09-06T01:57:21.316Z,3.33
2022-09-06T02:00:27.448Z,3.40
2022-09-06T02:03:10.288Z,3.30
2022-09-06T02:05:56.327Z,3.35
2022-09-06T02:08:37.990Z,3.13
2022-09-06T02:11:10.906Z,3.00
2022-09-06T02:13:56.930Z,3.35
2022-09-06T02:16:27.717Z,3.50
2022-09-06T02:19:33.087Z,3.38
2022-09-06T02:24:37.659Z,3.47
2022-09-06T02:27:31.037Z,3.08
2022-09-06T02:30:06.596Z,3.20
2022-09-06T02:32:46.688Z,3.35
2022-09-06T02:35:24.072Z,2.95
2022-09-06T02:38:02.070Z,3.63
2022-09-06T02:40:40.281Z,3.10
2022-09-06T02:43:24.582Z,3.47
2022-09-06T02:45:57.217Z,3.70
2022-09-06T02:48:36.218Z,3.80
2022-09-06T02:51:18.699Z,3.47
2022-09-06T02:56:33.467Z,3.80
2022-09-06T02:59:15.946Z,3.70
2022-09-06T03:01:57.163Z,3.33
2022-09-06T03:04:37.350Z,3.95
2022-09-06T03:07:13.325Z,3.63
2022-09-06T03:09:51.715Z,4.32
2022-09-06T03:12:25.111Z,4.15
2022-09-06T03:14:57.410Z,3.60
2022-09-06T03:17:32.218Z,3.63
2022-09-06T03:20:03.772Z,4.10
2022-09-06T03:22:40.464Z,4.28
2022-09-06T03:25:14.723Z,3.65
2022-09-06T03:27:51.949Z,4.10
2022-09-06T03:30:26.176Z,3.85
2022-09-06T03:33:02.812Z,3.60
2022-09-06T03:35:39.928Z,3.90
2022-09-06T03:38:27.240Z,3.80
2022-09-06T03:41:00.339Z,3.97
2022-09-06T03:43:45.166Z,3.97
2022-09-06T03:46:20.831Z,3.65
2022-09-06T03:48:49.233Z,4.47
2022-09-06T03:51:17.669Z,4.88
2022-09-06T03:53:45.437Z,4.70
2022-09-06T03:56:12.863Z,5.13
2022-09-06T03:58:40.319Z,5.28
2022-09-06T04:01:10.650Z,5.18
2022-09-06T04:03:39.422Z,5.40
2022-09-06T04:06:07.543Z,5.28
2022-09-06T04:08:36.612Z,6.32
2022-09-06T04:11:04.816Z,5.90
2022-09-06T04:13:33.733Z,5.88
2022-09-06T04:16:01.909Z,5.65
2022-09-06T04:18:29.861Z,5.90
2022-09-06T04:20:58.188Z,6.03
2022-09-06T04:23:27.735Z,5.80
2022-09-06T04:25:56.767Z,6.18
2022-09-06T04:28:26.521Z,5.82
2022-09-06T04:31:03.949Z,6.30
2022-09-06T04:33:34.830Z,6.20
2022-09-06T04:36:05.201Z,6.25
2022-09-06T04:38:36.652Z,5.88
2022-09-06T04:41:04.983Z,6.32
2022-09-06T04:43:32.380Z,6.25
2022-09-06T04:46:25.620Z,6.65
2022-09-06T04:48:54.979Z,6.43
2022-09-06T04:51:23.760Z,6.90
2022-09-06T04:53:51.809Z,6.25
2022-09-06T04:56:24.235Z,7.28
2022-09-06T04:58:53.736Z,6.85
2022-09-06T05:01:22.035Z,6.13
2022-09-06T05:03:50.844Z,7.13
2022-09-06T05:06:22.282Z,7.18
2022-09-06T05:08:50.776Z,7.28
2022-09-06T05:11:20.026Z,7.03
2022-09-06T05:13:47.884Z,6.55
2022-09-06T05:16:15.407Z,6.88
2022-09-06T05:18:44.247Z,7.43
2022-09-06T05:21:11.757Z,7.05
2022-09-06T05:23:39.211Z,7.30
2022-09-06T05:26:06.704Z,7.18
2022-09-06T05:28:34.567Z,7.47
2022-09-06T05:31:29.268Z,7.38
2022-09-06T05:33:57.846Z,6.93
2022-09-06T05:36:29.714Z,7.68
2022-09-06T05:38:57.907Z,7.82
2022-09-06T05:41:26.215Z,7.50
2022-09-06T05:43:53.677Z,7.70
2022-09-06T05:46:21.515Z,7.50
2022-09-06T05:48:57.986Z,8.07
2022-09-06T05:51:25.572Z,8.13
2022-09-06T05:53:53.155Z,7.72
2022-09-06T05:56:20.713Z,7.47
2022-09-06T05:58:48.171Z,7.60
2022-09-06T06:01:27.302Z,8.10
2022-09-06T06:04:00.577Z,8.77
2022-09-06T06:06:36.336Z,8.98
2022-09-06T06:09:04.278Z,8.57
2022-09-06T06:11:42.658Z,8.60
2022-09-06T06:14:14.743Z,8.35
2022-09-06T06:16:42.539Z,8.75
2022-09-06T06:19:10.394Z,8.98
2022-09-06T06:21:42.336Z,8.35
2022-09-06T06:26:39.801Z,8.80
2022-09-06T06:29:32.756Z,8.82
2022-09-06T06:45:59.071Z,7.63
2022-09-06T06:48:26.517Z,7.88
2022-09-06T06:50:53.863Z,8.18
2022-09-06T06:53:21.272Z,7.57
2022-09-06T06:55:49.129Z,7.30
2022-09-06T06:58:17.943Z,7.35
2022-09-06T07:00:46.111Z,7.75
2022-09-06T07:03:13.664Z,7.03
2022-09-06T07:08:30.851Z,8.02
2022-09-06T07:11:00.919Z,8.13
2022-09-06T07:13:28.611Z,7.88
2022-09-06T07:16:15.223Z,7.90
2022-09-06T07:18:43.587Z,6.85
2022-09-06T07:24:08.512Z,6.28
2022-09-06T07:26:39.561Z,6.80
2022-09-06T07:29:08.458Z,6.35
2022-09-06T07:34:26.006Z,6.28
2022-09-06T07:36:56.649Z,6.40
2022-09-06T07:39:24.262Z,6.65
2022-09-06T07:41:52.261Z,6.45
2022-09-06T07:44:19.708Z,6.82
2022-09-06T07:46:47.296Z,6.53
2022-09-06T07:49:14.865Z,5.88
2022-09-06T07:51:45.040Z,6.32
2022-09-06T07:54:30.126Z,6.50
2022-09-06T07:56:58.371Z,6.55
2022-09-06T07:59:25.915Z,6.35
2022-09-06T08:01:53.513Z,6.65
2022-09-06T08:04:21.075Z,6.55
2022-09-06T08:09:38.599Z,6.10
2022-09-06T08:12:09.270Z,6.13
2022-09-06T08:14:36.737Z,6.85
2022-09-06T08:17:04.512Z,6.47
2022-09-06T08:19:32.669Z,5.78
2022-09-06T08:22:00.132Z,6.55
2022-09-06T08:24:27.671Z,6.05
2022-09-06T08:26:55.154Z,6.63
2022-09-06T08:29:22.597Z,6.07
2022-09-06T08:31:50.112Z,5.93
2022-09-06T08:34:17.690Z,5.82
2022-09-06T08:36:45.997Z,6.00
2022-09-06T08:39:13.597Z,5.40
2022-09-06T08:41:58.587Z,5.85
2022-09-06T08:47:25.452Z,5.63
2022-09-06T08:50:00.733Z,5.57
2022-09-06T08:53:00.132Z,5.63
2022-09-06T08:55:55.947Z,5.60
2022-09-06T08:58:32.311Z,4.65
2022-09-06T09:01:14.399Z,4.90
2022-09-06T09:03:43.866Z,4.97
2022-09-06T09:06:11.464Z,5.32
2022-09-06T09:08:52.327Z,4.90
2022-09-06T09:11:25.657Z,4.18
2022-09-06T09:14:17.212Z,3.80
2022-09-06T09:16:44.915Z,4.40
2022-09-06T09:19:13.453Z,3.75
2022-09-06T09:21:40.981Z,4.53
2022-09-06T09:24:11.507Z,4.40
2022-09-06T09:27:11.200Z,4.40
2022-09-06T09:32:45.331Z,4.50
2022-09-06T09:35:37.287Z,4.22
2022-09-06T09:38:19.169Z,4.97
2022-09-06T09:41:00.060Z,3.83
2022-09-06T09:43:34.648Z,3.92
2022-09-06T09:46:30.502Z,4.22
2022-09-06T09:49:05.410Z,4.93
2022-09-06T09:51:44.755Z,4.30
2022-09-06T09:54:15.125Z,3.67
2022-09-06T09:56:51.723Z,3.13
2022-09-06T09:59:26.793Z,3.28
2022-09-06T10:02:03.907Z,2.53
2022-09-06T10:05:02.264Z,2.90
2022-09-06T10:07:34.129Z,3.00
2022-09-06T10:10:06.036Z,3.78
2022-09-06T10:12:38.889Z,3.65
2022-09-06T10:15:08.973Z,3.60
2022-09-06T10:17:47.551Z,3.25
2022-09-06T10:20:16.693Z,3.70
2022-09-06T10:23:09.517Z,3.55
2022-09-06T10:25:37.974Z,3.45
2022-09-06T10:28:29.546Z,3.20
2022-09-06T10:31:06.282Z,3.47
2022-09-06T10:33:51.875Z,3.85
2022-09-06T10:36:24.985Z,3.40
2022-09-06T10:39:10.361Z,3.37
2022-09-06T10:42:08.334Z,3.40
2022-09-06T10:45:00.031Z,3.97
2022-09-06T10:47:53.142Z,2.83
2022-09-06T10:50:22.309Z,3.30
2022-09-06T10:52:52.927Z,3.42
2022-09-06T10:55:20.881Z,3.65
2022-09-06T11:00:47.660Z,3.38
2022-09-06T11:06:28.874Z,3.63
2022-09-06T11:09:03.276Z,3.30
2022-09-06T11:11:42.921Z,4.20
2022-09-06T11:14:13.859Z,3.53
2022-09-06T11:17:07.485Z,4.00
2022-09-06T11:19:47.643Z,3.53
2022-09-06T11:22:40.177Z,4.32
2022-09-06T11:25:50.925Z,4.70
2022-09-06T11:28:28.369Z,3.92
2022-09-06T11:30:58.150Z,4.20
2022-09-06T11:33:31.694Z,4.53
2022-09-06T11:36:19.471Z,4.45
2022-09-06T11:38:59.616Z,4.80
2022-09-06T11:41:38.153Z,4.53
2022-09-06T11:44:07.694Z,5.38
2022-09-06T11:46:35.363Z,6.13
2022-09-06T11:49:42.851Z,5.68
2022-09-06T11:52:52.210Z,5.68
2022-09-06T11:55:22.827Z,6.07
2022-09-06T11:57:55.895Z,5.82
2022-09-06T12:00:24.773Z,5.30
2022-09-06T12:02:52.977Z,5.75
2022-09-06T12:05:25.736Z,6.00
2022-09-06T12:08:24.436Z,5.05
2022-09-06T12:11:00.974Z,5.75
2022-09-06T12:13:47.021Z,4.75
2022-09-06T12:16:17.065Z,4.60
2022-09-06T12:18:47.646Z,4.43
2022-09-06T12:21:36.638Z,3.92
2022-09-06T12:24:25.577Z,4.40
2022-09-06T12:27:16.322Z,4.78
2022-09-06T12:30:05.593Z,4.55
2022-09-06T12:33:02.367Z,4.22
2022-09-06T12:38:24.367Z,4.72
2022-09-06T12:40:56.479Z,4.53
2022-09-06T12:43:24.531Z,4.80
2022-09-06T12:45:55.011Z,5.00
2022-09-06T12:48:44.403Z,4.78
2022-09-06T12:51:20.264Z,3.97
2022-09-06T12:53:58.980Z,4.78
2022-09-06T12:56:28.667Z,5.80
2022-09-06T12:59:20.522Z,5.05
2022-09-06T13:02:01.066Z,4.60
2022-09-06T13:04:46.533Z,4.45
2022-09-06T13:07:17.667Z,4.45
2022-09-06T13:09:49.045Z,4.60
2022-09-06T13:12:37.835Z,5.65
2022-09-06T13:15:11.874Z,4.90
2022-09-06T13:17:40.190Z,4.82
2022-09-06T13:20:28.451Z,5.22
2022-09-06T13:23:21.790Z,4.00
2022-09-06T13:25:52.381Z,4.47
2022-09-06T13:28:31.927Z,4.10
2022-09-06T13:31:21.085Z,4.20
2022-09-06T13:33:59.045Z,4.50
2022-09-06T13:36:34.813Z,3.70
2022-09-06T13:39:05.640Z,2.75
2022-09-06T13:41:38.890Z,2.40
2022-09-06T13:44:15.504Z,2.05
2022-09-06T13:46:46.173Z,2.25
2022-09-06T13:49:14.229Z,2.05
2022-09-06T13:51:43.389Z,1.80
2022-09-06T13:54:14.235Z,2.10
2022-09-06T13:56:48.511Z,1.90
2022-09-06T13:59:16.754Z,2.00
2022-09-06T14:01:46.676Z,1.60
2022-09-06T14:04:16.585Z,1.85
2022-09-06T14:06:44.115Z,2.10
2022-09-06T14:09:11.873Z,2.05
2022-09-06T14:11:39.619Z,1.75
2022-09-06T14:14:07.162Z,2.00
2022-09-06T14:16:36.036Z,1.90
2022-09-06T14:19:04.303Z,1.80
2022-09-06T14:21:32.816Z,2.00
2022-09-06T14:24:04.166Z,1.92
2022-09-06T14:26:33.241Z,1.60
2022-09-06T14:29:00.867Z,1.70
2022-09-06T14:31:29.383Z,1.50
2022-09-06T14:33:57.779Z,1.40
2022-09-06T14:36:28.490Z,1.45
2022-09-06T14:38:58.544Z,1.20
2022-09-06T14:41:26.313Z,1.20
2022-09-06T14:43:56.050Z,1.40
2022-09-06T14:46:25.522Z,1.70
2022-09-06T14:49:07.871Z,1.70
2022-09-06T14:51:36.930Z,1.50
2022-09-06T14:54:10.942Z,1.58
2022-09-06T14:56:44.193Z,1.60
2022-09-06T14:59:12.270Z,1.40
2022-09-06T15:01:41.266Z,1.48
2022-09-06T15:04:10.676Z,1.50
2022-09-06T15:06:40.712Z,1.92
2022-09-06T15:09:08.292Z,1.73
2022-09-06T15:11:41.947Z,1.60
2022-09-06T15:14:17.242Z,1.90
2022-09-06T15:16:45.794Z,1.73
2022-09-06T15:19:14.201Z,1.85
2022-09-06T15:21:42.549Z,1.60
2022-09-06T15:24:12.208Z,2.20
2022-09-06T15:26:41.671Z,1.90
2022-09-06T15:29:11.927Z,1.85
2022-09-06T15:31:40.329Z,1.92
2022-09-06T15:34:09.051Z,1.80
2022-09-06T15:36:37.673Z,2.10
2022-09-06T15:39:06.059Z,1.90
2022-09-06T15:41:36.076Z,2.17
2022-09-06T15:44:13.306Z,2.15
2022-09-06T15:46:55.349Z,2.42
2022-09-06T15:49:28.636Z,2.05
2022-09-06T15:51:58.248Z,1.90
2022-09-06T15:54:44.406Z,2.20
2022-09-06T15:57:13.147Z,2.15
2022-09-06T15:59:41.073Z,1.60
2022-09-06T16:02:09.430Z,1.50
2022-09-06T16:04:36.977Z,1.63
2022-09-06T16:07:04.504Z,1.60
2022-09-06T16:09:32.225Z,1.48
2022-09-06T16:11:59.728Z,1.50
2022-09-06T16:14:29.026Z,1.50
2022-09-06T16:16:57.348Z,1.50
2022-09-06T16:19:26.086Z,1.40
2022-09-06T16:21:53.997Z,1.60
2022-09-06T16:24:21.561Z,1.70
2022-09-06T16:26:49.160Z,1.40
2022-09-06T16:29:18.275Z,1.20
2022-09-06T16:31:46.391Z,1.33
2022-09-06T16:34:14.997Z,1.50
2022-09-06T16:36:42.476Z,1.85
2022-09-06T16:39:12.030Z,1.70
2022-09-06T16:41:44.932Z,1.63
2022-09-06T16:44:17.031Z,1.58
2022-09-06T16:46:47.052Z,1.40
2022-09-06T16:49:17.219Z,1.40
2022-09-06T16:51:45.808Z,1.38
2022-09-06T16:54:15.442Z,1.48
2022-09-06T16:56:43.632Z,1.30
2022-09-06T16:59:11.973Z,1.60
2022-09-06T17:01:44.338Z,1.52
2022-09-06T17:04:13.122Z,1.50
2022-09-06T17:06:47.024Z,1.48
2022-09-06T17:11:43.398Z,1.30
2022-09-06T17:14:11.151Z,1.38
2022-09-06T17:16:57.114Z,1.60
2022-09-06T17:19:24.928Z,1.60
2022-09-06T17:21:52.454Z,1.50
2022-09-06T17:24:20.076Z,1.65
2022-09-06T17:26:49.128Z,1.45
2022-09-06T17:29:16.803Z,1.30
2022-09-06T17:31:52.959Z,1.50
2022-09-06T17:34:20.558Z,2.00
2022-09-06T17:36:48.200Z,1.60
2022-09-06T17:39:25.904Z,1.75
2022-09-06T17:41:54.262Z,1.77
2022-09-06T17:44:25.457Z,1.60
2022-09-06T17:47:12.942Z,1.50
2022-09-06T17:49:42.352Z,1.80
2022-09-06T17:52:12.949Z,1.40
2022-09-06T17:54:40.501Z,1.77
2022-09-06T17:57:07.943Z,1.80
2022-09-06T17:59:36.094Z,1.70
2022-09-06T18:02:04.866Z,1.75
2022-09-06T18:04:32.883Z,1.80
2022-09-06T18:07:00.487Z,2.08
2022-09-06T18:09:28.452Z,1.90
2022-09-06T18:11:56.009Z,1.70
2022-09-06T18:14:23.434Z,2.00
2022-09-06T18:16:54.633Z,1.70
2022-09-06T18:19:23.207Z,1.65
2022-09-06T18:21:51.537Z,1.73
2022-09-06T18:24:19.058Z,1.88
2022-09-06T18:26:46.675Z,1.80
2022-09-06T18:29:16.652Z,1.75
2022-09-06T18:31:44.805Z,1.70
2022-09-06T18:34:16.832Z,1.77
2022-09-06T18:36:44.407Z,1.88
2022-09-06T18:39:13.158Z,1.67
2022-09-06T18:41:59.194Z,2.10
2022-09-06T18:44:42.031Z,2.00
2022-09-06T18:47:12.642Z,1.80
2022-09-06T18:49:43.962Z,2.17
2022-09-06T18:52:11.925Z,2.00
2022-09-06T18:54:39.391Z,2.28
2022-09-06T18:57:07.061Z,2.55
2022-09-06T18:59:34.595Z,2.30
2022-09-06T19:02:02.135Z,2.40
2022-09-06T19:04:29.728Z,2.50
2022-09-06T19:06:57.210Z,2.53
2022-09-06T19:09:24.660Z,2.58
2022-09-06T19:11:53.220Z,2.55
2022-09-06T19:14:23.257Z,2.60
2022-09-06T19:16:53.862Z,2.60
2022-09-06T19:19:22.699Z,2.30
2022-09-06T19:21:50.175Z,2.58
2022-09-06T19:24:19.676Z,2.35
2022-09-06T19:26:47.357Z,2.53
2022-09-06T19:29:18.171Z,2.63
2022-09-06T19:31:47.437Z,3.17
2022-09-06T19:34:16.907Z,2.90
2022-09-06T19:36:46.060Z,2.50
2022-09-06T19:39:16.622Z,2.60
2022-09-06T19:41:46.771Z,2.67
2022-09-06T19:44:17.812Z,2.43
2022-09-06T19:46:47.311Z,2.70
2022-09-06T19:49:19.701Z,2.30
2022-09-06T19:51:49.171Z,2.38
2022-09-06T19:54:17.178Z,2.35
2022-09-06T19:56:45.970Z,2.05
2022-09-06T19:59:15.426Z,2.53
2022-09-06T20:01:44.828Z,2.50
2022-09-06T20:04:24.194Z,2.30
2022-09-06T20:06:51.654Z,2.65
2022-09-06T20:09:19.307Z,2.47
2022-09-06T20:11:46.801Z,2.38
2022-09-06T20:14:14.510Z,2.78
2022-09-06T20:16:44.815Z,2.72
2022-09-06T20:19:22.190Z,3.13
2022-09-06T20:21:53.811Z,2.60
2022-09-06T20:24:21.543Z,2.45
2022-09-06T20:27:09.502Z,2.90
2022-09-06T20:30:06.325Z,2.45
2022-09-06T20:32:40.956Z,2.72
2022-09-06T20:35:13.403Z,2.75
2022-09-06T20:37:43.740Z,3.15
2022-09-06T20:40:13.157Z,3.10
2022-09-06T20:42:42.313Z,3.28
2022-09-06T20:45:12.076Z,3.30
2022-09-06T20:47:39.701Z,3.83
2022-09-06T20:50:10.549Z,3.83
2022-09-06T20:52:38.288Z,4.20
2022-09-06T20:55:06.517Z,4.78
2022-09-06T20:57:34.042Z,3.97
2022-09-06T21:00:02.132Z,4.70
2022-09-06T21:02:49.285Z,5.10
2022-09-06T21:05:16.824Z,5.00
2022-09-06T21:07:44.445Z,5.28
2022-09-06T22:17:59.159Z,4.63
2022-09-06T22:20:29.143Z,5.15
2022-09-06T22:22:57.914Z,4.05
2022-09-06T22:25:25.330Z,4.35
2022-09-06T22:27:52.793Z,4.28
2022-09-06T22:30:25.047Z,3.22
2022-09-06T22:32:53.697Z,2.90
2022-09-06T22:36:26.084Z,2.72
2022-09-06T22:44:07.449Z,3.00
2022-09-06T22:46:35.932Z,3.35
2022-09-06T22:49:05.369Z,3.33
2022-09-06T22:51:32.777Z,3.40
2022-09-06T22:54:00.139Z,3.50
2022-09-06T22:56:27.437Z,3.38
2022-09-06T22:58:54.745Z,3.10
2022-09-06T23:01:22.333Z,3.40
2022-09-06T23:03:50.570Z,3.08
2022-09-06T23:06:18.109Z,2.80
2022-09-06T23:08:45.480Z,2.60
2022-09-06T23:11:15.952Z,2.70
2022-09-06T23:13:44.045Z,2.65
2022-09-06T23:16:15.052Z,2.80
2022-09-06T23:18:42.885Z,2.55
2022-09-06T23:21:13.037Z,2.78
2022-09-06T23:23:41.578Z,2.22
2022-09-06T23:26:15.085Z,2.60
2022-09-06T23:28:43.492Z,2.40
2022-09-06T23:31:13.863Z,2.50
2022-09-06T23:33:41.806Z,2.53
2022-09-06T23:36:11.525Z,2.28
2022-09-06T23:38:40.408Z,2.63
2022-09-06T23:41:09.850Z,2.35
2022-09-06T23:43:38.912Z,2.22
2022-09-06T23:46:07.254Z,2.90
2022-09-06T23:48:35.005Z,2.55
2022-09-06T23:51:02.912Z,2.60
2022-09-06T23:53:30.544Z,2.53
2022-09-06T23:55:57.918Z,3.35
2022-09-06T23:58:25.722Z,3.00
